HFY801 FACT-AT98
Flight info
| Callsign | HFY801 |
|---|---|
| Flight time | 2h 8m |
| Altitude | 40000 |
| Route | IMSOM1B IMSOM UQ36 APKIN DCT ITLIK DCT 37S013E 41S012E 48S011E 54S010E 62S009E 68S008E DCT 71S008E |
| Aircraft | A343/H-SDE2E3FGHIJ4J5M1RWXY/LB1D1 |
Departure
| Time | 2026-04-28 14:10 |
|---|---|
| Airport | Cape Town International Airport (FACT) |
Arrival
| Time | 2026-04-28 16:19 |
|---|---|
| Airport | (Duplicate)Wolf's Fang Runway (AT98) |
| Time | Latitude | Longitude | Altitude | Speed | Heading |
|---|---|---|---|---|---|
| 2026-04-28 14:10 | -34.03851 | 18.62740 | 2625 ft | 225 kts | 166° |
| 2026-04-28 14:10 | -34.05456 | 18.62723 | 3368 ft | 240 kts | 196° |
| 2026-04-28 14:11 | -34.06959 | 18.61757 | 4218 ft | 249 kts | 211° |
| 2026-04-28 14:11 | -34.08320 | 18.60424 | 5104 ft | 257 kts | 224° |
| 2026-04-28 14:11 | -34.09307 | 18.58593 | 5933 ft | 268 kts | 247° |
| 2026-04-28 14:11 | -34.09514 | 18.56345 | 6782 ft | 277 kts | 278° |
| 2026-04-28 14:12 | -34.07890 | 18.50368 | 8973 ft | 288 kts | 288° |
| 2026-04-28 14:12 | -34.05070 | 18.40720 | 11224 ft | 333 kts | 288° |
| 2026-04-28 14:12 | -34.01706 | 18.29145 | 12786 ft | 385 kts | 288° |
| 2026-04-28 14:12 | -33.98103 | 18.16788 | 15463 ft | 399 kts | 287° |
| 2026-04-28 14:13 | -33.94420 | 18.03914 | 17930 ft | 411 kts | 282° |
| 2026-04-28 14:13 | -33.94864 | 17.90279 | 20294 ft | 411 kts | 257° |
| 2026-04-28 14:13 | -33.97149 | 17.76664 | 22545 ft | 418 kts | 258° |
| 2026-04-28 14:13 | -33.99290 | 17.62700 | 24399 ft | 427 kts | 258° |
| 2026-04-28 14:14 | -34.01401 | 17.48632 | 26244 ft | 427 kts | 259° |
| 2026-04-28 14:14 | -34.03511 | 17.34514 | 27731 ft | 432 kts | 260° |
| 2026-04-28 14:14 | -34.05632 | 17.20202 | 29255 ft | 434 kts | 261° |
| 2026-04-28 14:14 | -34.07805 | 17.05971 | 31025 ft | 425 kts | 258° |
| 2026-04-28 14:15 | -34.13301 | 16.93310 | 32397 ft | 430 kts | 240° |
| 2026-04-28 14:15 | -34.20286 | 16.81802 | 33959 ft | 419 kts | 240° |
| 2026-04-28 14:15 | -34.26998 | 16.70628 | 35004 ft | 415 kts | 241° |
| 2026-04-28 14:15 | -34.33812 | 16.59199 | 35661 ft | 419 kts | 241° |
| 2026-04-28 14:16 | -34.40725 | 16.47584 | 36241 ft | 424 kts | 240° |
| 2026-04-28 14:16 | -34.47508 | 16.36156 | 36328 ft | 422 kts | 240° |
| 2026-04-28 14:16 | -34.61283 | 16.12822 | 36333 ft | 426 kts | 240° |
| 2026-04-28 14:17 | -34.75098 | 15.89261 | 36335 ft | 434 kts | 239° |
| 2026-04-28 14:17 | -34.89061 | 15.65303 | 36341 ft | 434 kts | 239° |
| 2026-04-28 14:18 | -35.03060 | 15.41109 | 36348 ft | 438 kts | 238° |
| 2026-04-28 14:18 | -35.17153 | 15.16585 | 36349 ft | 443 kts | 238° |
| 2026-04-28 14:19 | -35.32657 | 14.93158 | 36369 ft | 448 kts | 226° |
| 2026-04-28 14:19 | -35.51208 | 14.72382 | 36365 ft | 452 kts | 225° |
| 2026-04-28 14:20 | -35.69724 | 14.51436 | 36367 ft | 452 kts | 225° |
| 2026-04-28 14:20 | -35.88196 | 14.30403 | 36360 ft | 452 kts | 225° |
| 2026-04-28 14:21 | -36.06735 | 14.09151 | 36386 ft | 457 kts | 224° |
| 2026-04-28 14:21 | -36.25323 | 13.87700 | 36381 ft | 458 kts | 224° |
| 2026-04-28 14:22 | -36.43927 | 13.66084 | 36387 ft | 458 kts | 223° |
| 2026-04-28 14:22 | -36.62517 | 13.44332 | 36389 ft | 459 kts | 223° |
| 2026-04-28 14:23 | -36.81122 | 13.22414 | 36392 ft | 463 kts | 222° |
| 2026-04-28 14:23 | -37.00337 | 13.01061 | 36413 ft | 461 kts | 205° |
| 2026-04-28 14:24 | -37.12614 | 12.96909 | 36395 ft | 458 kts | 189° |
| 2026-04-28 14:24 | -37.25149 | 12.94034 | 36414 ft | 458 kts | 189° |
| 2026-04-28 14:24 | -37.49971 | 12.88120 | 36416 ft | 456 kts | 189° |
| 2026-04-28 14:25 | -37.74986 | 12.82111 | 36416 ft | 454 kts | 189° |
| 2026-04-28 14:25 | -37.99617 | 12.76153 | 36414 ft | 453 kts | 189° |
| 2026-04-28 14:26 | -38.24372 | 12.70125 | 36413 ft | 453 kts | 189° |
| 2026-04-28 14:26 | -38.49137 | 12.64052 | 36413 ft | 452 kts | 189° |
| 2026-04-28 14:27 | -38.73813 | 12.57958 | 36419 ft | 451 kts | 189° |
| 2026-04-28 14:27 | -38.98425 | 12.51837 | 36422 ft | 449 kts | 189° |
| 2026-04-28 14:28 | -39.22962 | 12.45692 | 36428 ft | 448 kts | 189° |
| 2026-04-28 14:28 | -39.43420 | 12.40534 | 36414 ft | 445 kts | 189° |
| 2026-04-28 14:29 | -39.67648 | 12.34387 | 36428 ft | 443 kts | 190° |
| 2026-04-28 14:29 | -39.91667 | 12.28248 | 36439 ft | 441 kts | 190° |
| 2026-04-28 14:30 | -40.15758 | 12.22047 | 36439 ft | 441 kts | 190° |
| 2026-04-28 14:30 | -40.39814 | 12.15810 | 36435 ft | 441 kts | 191° |
| 2026-04-28 14:31 | -40.63909 | 12.09517 | 36427 ft | 441 kts | 191° |
| 2026-04-28 14:31 | -40.88009 | 12.03177 | 36425 ft | 443 kts | 191° |
| 2026-04-28 14:32 | -41.12386 | 11.98405 | 36419 ft | 443 kts | 186° |
| 2026-04-28 14:32 | -41.36998 | 11.95281 | 36420 ft | 444 kts | 186° |
| 2026-04-28 14:33 | -41.61654 | 11.92104 | 36409 ft | 446 kts | 187° |
| 2026-04-28 14:33 | -41.86375 | 11.88894 | 36403 ft | 447 kts | 187° |
| 2026-04-28 14:34 | -42.23520 | 11.84025 | 36393 ft | 447 kts | 187° |
| 2026-04-28 14:35 | -42.48326 | 11.80740 | 36367 ft | 449 kts | 188° |
| 2026-04-28 14:35 | -42.73216 | 11.77418 | 36360 ft | 449 kts | 188° |
| 2026-04-28 14:36 | -42.98101 | 11.74070 | 36371 ft | 450 kts | 188° |
| 2026-04-28 14:36 | -43.23084 | 11.70681 | 36355 ft | 451 kts | 188° |
| 2026-04-28 14:37 | -43.48110 | 11.67259 | 36337 ft | 452 kts | 189° |
| 2026-04-28 14:37 | -43.73169 | 11.63803 | 36320 ft | 453 kts | 189° |
| 2026-04-28 14:38 | -43.98302 | 11.60307 | 36305 ft | 454 kts | 190° |
| 2026-04-28 14:38 | -44.23269 | 11.56805 | 36293 ft | 454 kts | 190° |
| 2026-04-28 14:39 | -44.48471 | 11.53240 | 36281 ft | 455 kts | 191° |
| 2026-04-28 14:39 | -44.73687 | 11.49642 | 36263 ft | 455 kts | 191° |
| 2026-04-28 14:40 | -44.98944 | 11.46005 | 36245 ft | 458 kts | 191° |
| 2026-04-28 14:40 | -45.24323 | 11.42320 | 36233 ft | 459 kts | 192° |
| 2026-04-28 14:41 | -45.49735 | 11.38595 | 36213 ft | 459 kts | 192° |
| 2026-04-28 14:41 | -45.75176 | 11.34833 | 36192 ft | 460 kts | 192° |
| 2026-04-28 14:42 | -46.00623 | 11.31035 | 36159 ft | 459 kts | 192° |
| 2026-04-28 14:42 | -46.26042 | 11.27206 | 36138 ft | 459 kts | 193° |
| 2026-04-28 14:43 | -46.51521 | 11.23331 | 36122 ft | 461 kts | 193° |
| 2026-04-28 14:43 | -46.77048 | 11.19414 | 36097 ft | 461 kts | 193° |
| 2026-04-28 14:44 | -47.02562 | 11.15460 | 36070 ft | 461 kts | 194° |
| 2026-04-28 14:44 | -47.28175 | 11.11452 | 36058 ft | 464 kts | 194° |
| 2026-04-28 14:45 | -47.53851 | 11.07396 | 36010 ft | 464 kts | 194° |
| 2026-04-28 14:45 | -47.79378 | 11.03323 | 35984 ft | 464 kts | 195° |
| 2026-04-28 14:46 | -48.05170 | 10.99203 | 35952 ft | 468 kts | 195° |
| 2026-04-28 14:46 | -48.31089 | 10.95420 | 35923 ft | 468 kts | 195° |
| 2026-04-28 14:47 | -48.57010 | 10.91553 | 35897 ft | 468 kts | 195° |
| 2026-04-28 14:47 | -48.83066 | 10.87626 | 35865 ft | 471 kts | 195° |
| 2026-04-28 14:48 | -49.09158 | 10.83653 | 35832 ft | 472 kts | 196° |
| 2026-04-28 14:48 | -49.35335 | 10.79625 | 35792 ft | 473 kts | 196° |
| 2026-04-28 14:49 | -49.61643 | 10.75531 | 35750 ft | 477 kts | 196° |
| 2026-04-28 14:49 | -49.88118 | 10.71371 | 35711 ft | 478 kts | 197° |
| 2026-04-28 14:50 | -50.14621 | 10.67158 | 35662 ft | 479 kts | 197° |
| 2026-04-28 14:50 | -50.41261 | 10.62870 | 35643 ft | 484 kts | 197° |
| 2026-04-28 14:51 | -50.68105 | 10.58509 | 35596 ft | 485 kts | 197° |
| 2026-04-28 14:51 | -50.95011 | 10.54085 | 35549 ft | 486 kts | 197° |
| 2026-04-28 14:52 | -51.21914 | 10.49607 | 35508 ft | 487 kts | 197° |
| 2026-04-28 14:52 | -51.49007 | 10.45046 | 35482 ft | 490 kts | 197° |
| 2026-04-28 14:53 | -51.76148 | 10.40420 | 35436 ft | 490 kts | 197° |
| 2026-04-28 14:53 | -52.03255 | 10.35745 | 35399 ft | 490 kts | 197° |
| 2026-04-28 14:54 | -52.30301 | 10.31022 | 35366 ft | 488 kts | 196° |
| 2026-04-28 14:54 | -52.57265 | 10.26255 | 35387 ft | 488 kts | 196° |
| 2026-04-28 14:55 | -52.84250 | 10.21426 | 35318 ft | 488 kts | 195° |
| 2026-04-28 14:55 | -53.11260 | 10.16528 | 35290 ft | 489 kts | 195° |
| 2026-04-28 14:56 | -53.38325 | 10.11564 | 35274 ft | 490 kts | 195° |
| 2026-04-28 14:56 | -53.65437 | 10.06524 | 35266 ft | 489 kts | 195° |
| 2026-04-28 14:57 | -53.92496 | 10.01429 | 35250 ft | 490 kts | 195° |
| 2026-04-28 14:57 | -54.19830 | 9.97980 | 35234 ft | 493 kts | 191° |
| 2026-04-28 14:58 | -54.47151 | 9.95230 | 35234 ft | 490 kts | 191° |
| 2026-04-28 14:58 | -54.74374 | 9.92422 | 35227 ft | 488 kts | 191° |
| 2026-04-28 14:59 | -55.01483 | 9.89589 | 35222 ft | 487 kts | 191° |
| 2026-04-28 14:59 | -55.28585 | 9.86714 | 35223 ft | 489 kts | 191° |
| 2026-04-28 15:00 | -55.55567 | 9.83816 | 35221 ft | 490 kts | 191° |
| 2026-04-28 15:00 | -55.82777 | 9.80854 | 35250 ft | 490 kts | 191° |
| 2026-04-28 15:01 | -56.10025 | 9.77846 | 35247 ft | 490 kts | 192° |
| 2026-04-28 15:01 | -56.37268 | 9.74792 | 35279 ft | 492 kts | 191° |
| 2026-04-28 15:02 | -56.64563 | 9.71694 | 35295 ft | 492 kts | 192° |
| 2026-04-28 15:02 | -56.91870 | 9.68546 | 35317 ft | 491 kts | 192° |
| 2026-04-28 15:03 | -57.19116 | 9.65359 | 35324 ft | 490 kts | 192° |
| 2026-04-28 15:03 | -57.46288 | 9.62134 | 35353 ft | 489 kts | 193° |
| 2026-04-28 15:04 | -57.73505 | 9.58856 | 35341 ft | 488 kts | 193° |
| 2026-04-28 15:04 | -58.00535 | 9.55552 | 35331 ft | 484 kts | 193° |
| 2026-04-28 15:05 | -58.27381 | 9.52218 | 35330 ft | 481 kts | 193° |
| 2026-04-28 15:05 | -58.54093 | 9.48849 | 35332 ft | 479 kts | 193° |
| 2026-04-28 15:06 | -58.80697 | 9.45440 | 35331 ft | 478 kts | 193° |
| 2026-04-28 15:06 | -59.07238 | 9.41986 | 35336 ft | 478 kts | 193° |
| 2026-04-28 15:07 | -59.33776 | 9.38484 | 35325 ft | 477 kts | 193° |
| 2026-04-28 15:07 | -59.60242 | 9.34935 | 35342 ft | 476 kts | 193° |
| 2026-04-28 15:08 | -59.86411 | 9.31368 | 35351 ft | 474 kts | 193° |
| 2026-04-28 15:08 | -60.12613 | 9.27741 | 35325 ft | 472 kts | 192° |
| 2026-04-28 15:09 | -60.38979 | 9.24033 | 35317 ft | 472 kts | 192° |
| 2026-04-28 15:09 | -60.64993 | 9.20315 | 35298 ft | 471 kts | 192° |
| 2026-04-28 15:10 | -60.91161 | 9.16513 | 35292 ft | 471 kts | 192° |
| 2026-04-28 15:10 | -61.17495 | 9.12624 | 35278 ft | 471 kts | 191° |
| 2026-04-28 15:11 | -61.43603 | 9.08703 | 35265 ft | 470 kts | 191° |
| 2026-04-28 15:11 | -61.69508 | 9.04746 | 35262 ft | 469 kts | 190° |
| 2026-04-28 15:12 | -61.95527 | 9.00705 | 35249 ft | 469 kts | 190° |
| 2026-04-28 15:12 | -62.21561 | 8.97110 | 35234 ft | 469 kts | 189° |
| 2026-04-28 15:13 | -62.47590 | 8.93565 | 35206 ft | 468 kts | 189° |
| 2026-04-28 15:13 | -62.73602 | 8.89958 | 35174 ft | 467 kts | 189° |
| 2026-04-28 15:14 | -62.99524 | 8.86301 | 35152 ft | 466 kts | 188° |
| 2026-04-28 15:14 | -63.25387 | 8.82586 | 35139 ft | 465 kts | 188° |
| 2026-04-28 15:15 | -63.51198 | 8.78810 | 35117 ft | 464 kts | 188° |
| 2026-04-28 15:15 | -63.72606 | 8.75627 | 35096 ft | 464 kts | 188° |
| 2026-04-28 15:16 | -63.98306 | 8.71743 | 35080 ft | 462 kts | 188° |
| 2026-04-28 15:16 | -64.23945 | 8.67795 | 35057 ft | 460 kts | 188° |
| 2026-04-28 15:17 | -64.49480 | 8.63788 | 35045 ft | 459 kts | 187° |
| 2026-04-28 15:17 | -64.74985 | 8.59711 | 35054 ft | 459 kts | 187° |
| 2026-04-28 15:18 | -65.00457 | 8.55562 | 35023 ft | 458 kts | 187° |
| 2026-04-28 15:18 | -65.25921 | 8.51334 | 35012 ft | 458 kts | 187° |
| 2026-04-28 15:19 | -65.51365 | 8.47027 | 34999 ft | 458 kts | 187° |
| 2026-04-28 15:19 | -65.76771 | 8.42642 | 34994 ft | 456 kts | 187° |
| 2026-04-28 15:20 | -66.02106 | 8.38180 | 35001 ft | 456 kts | 187° |
| 2026-04-28 15:20 | -66.27427 | 8.33632 | 34990 ft | 456 kts | 187° |
| 2026-04-28 15:21 | -66.52725 | 8.28996 | 34992 ft | 456 kts | 187° |
| 2026-04-28 15:21 | -66.78033 | 8.24263 | 35001 ft | 455 kts | 187° |
| 2026-04-28 15:22 | -67.03316 | 8.19435 | 35029 ft | 455 kts | 187° |
| 2026-04-28 15:22 | -67.28582 | 8.14509 | 35032 ft | 455 kts | 187° |
| 2026-04-28 15:23 | -67.53865 | 8.09475 | 35051 ft | 456 kts | 187° |
| 2026-04-28 15:23 | -67.79141 | 8.04333 | 35059 ft | 455 kts | 187° |
| 2026-04-28 15:24 | -68.04448 | 7.99457 | 35074 ft | 457 kts | 183° |
| 2026-04-28 15:24 | -68.29904 | 8.00019 | 35085 ft | 457 kts | 182° |
| 2026-04-28 15:25 | -68.55371 | 7.99999 | 35098 ft | 457 kts | 182° |
| 2026-04-28 15:25 | -68.80822 | 7.99999 | 35112 ft | 458 kts | 182° |
| 2026-04-28 15:26 | -69.06286 | 8.00000 | 35126 ft | 457 kts | 182° |
| 2026-04-28 15:26 | -69.31716 | 8.00000 | 35141 ft | 456 kts | 182° |
| 2026-04-28 15:27 | -69.57102 | 7.99999 | 35155 ft | 456 kts | 182° |
| 2026-04-28 15:27 | -69.82510 | 7.99999 | 35169 ft | 457 kts | 182° |
| 2026-04-28 15:28 | -70.07955 | 7.99999 | 35191 ft | 457 kts | 182° |
| 2026-04-28 15:28 | -70.33412 | 7.99999 | 35201 ft | 457 kts | 182° |
| 2026-04-28 15:29 | -70.58744 | 7.99999 | 35220 ft | 458 kts | 182° |
| 2026-04-28 15:29 | -70.84267 | 7.99999 | 35228 ft | 459 kts | 182° |
| 2026-04-28 15:30 | -71.09833 | 7.99996 | 35251 ft | 459 kts | 182° |
| 2026-04-28 15:30 | -71.35425 | 8.00000 | 35253 ft | 460 kts | 181° |
| 2026-04-28 15:31 | -71.60990 | 8.00255 | 35239 ft | 459 kts | 181° |
| 2026-04-28 15:31 | -71.86539 | 8.00833 | 35184 ft | 459 kts | 181° |
| 2026-04-28 15:32 | -72.12091 | 8.01517 | 35088 ft | 459 kts | 181° |
| 2026-04-28 15:32 | -72.37708 | 8.02329 | 34977 ft | 460 kts | 181° |
| 2026-04-28 15:33 | -72.63391 | 8.03336 | 34925 ft | 462 kts | 181° |
| 2026-04-28 15:33 | -72.89125 | 8.04545 | 34870 ft | 464 kts | 181° |
| 2026-04-28 15:34 | -73.14954 | 8.06038 | 34870 ft | 464 kts | 181° |
| 2026-04-28 15:34 | -73.40864 | 8.07901 | 34860 ft | 466 kts | 181° |
| 2026-04-28 15:35 | -73.66834 | 8.10114 | 34853 ft | 468 kts | 181° |
| 2026-04-28 15:35 | -74.05904 | 8.14121 | 34863 ft | 469 kts | 181° |
| 2026-04-28 15:36 | -74.31846 | 8.17249 | 34879 ft | 470 kts | 181° |
| 2026-04-28 15:36 | -74.57957 | 8.20770 | 34885 ft | 469 kts | 180° |
| 2026-04-28 15:37 | -74.84110 | 8.24542 | 34890 ft | 470 kts | 180° |
| 2026-04-28 15:37 | -75.10274 | 8.29546 | 34893 ft | 475 kts | 172° |
| 2026-04-28 15:38 | -75.21637 | 8.55032 | 34903 ft | 486 kts | 130° |
| 2026-04-28 15:38 | -75.25740 | 9.04486 | 34887 ft | 489 kts | 85° |
| 2026-04-28 15:38 | -75.20367 | 9.51563 | 34036 ft | 473 kts | 41° |
| 2026-04-28 15:38 | -75.17676 | 9.60183 | 33375 ft | 468 kts | 30° |
| 2026-04-28 15:39 | -75.14847 | 9.66249 | 32793 ft | 462 kts | 20° |
| 2026-04-28 15:39 | -75.11830 | 9.70261 | 32115 ft | 455 kts | 10° |
| 2026-04-28 15:39 | -75.08738 | 9.72057 | 31470 ft | 446 kts | 358° |
| 2026-04-28 15:39 | -75.05668 | 9.71562 | 30853 ft | 439 kts | 352° |
| 2026-04-28 15:40 | -75.02637 | 9.70513 | 30222 ft | 436 kts | 352° |
| 2026-04-28 15:40 | -74.99629 | 9.69464 | 29584 ft | 432 kts | 352° |
| 2026-04-28 15:40 | -74.96643 | 9.68466 | 28977 ft | 428 kts | 352° |
| 2026-04-28 15:40 | -74.93696 | 9.67511 | 28303 ft | 423 kts | 352° |
| 2026-04-28 15:41 | -74.90773 | 9.66582 | 27537 ft | 420 kts | 352° |
| 2026-04-28 15:41 | -74.85424 | 9.64907 | 26174 ft | 414 kts | 353° |
| 2026-04-28 15:41 | -74.73971 | 9.61389 | 25846 ft | 412 kts | 353° |
| 2026-04-28 15:41 | -74.62556 | 9.57944 | 25842 ft | 412 kts | 353° |
| 2026-04-28 15:42 | -74.51140 | 9.54550 | 25848 ft | 412 kts | 353° |
| 2026-04-28 15:42 | -74.43615 | 9.52339 | 25840 ft | 413 kts | 353° |
| 2026-04-28 15:42 | -74.40744 | 9.51501 | 25840 ft | 414 kts | 353° |
| 2026-04-28 15:42 | -74.37876 | 9.50668 | 25841 ft | 414 kts | 353° |
| 2026-04-28 15:43 | -74.35010 | 9.49838 | 25841 ft | 414 kts | 353° |
| 2026-04-28 15:43 | -74.32141 | 9.49010 | 25840 ft | 414 kts | 353° |
| 2026-04-28 15:43 | -74.29268 | 9.48183 | 25840 ft | 414 kts | 353° |
| 2026-04-28 15:43 | -74.26400 | 9.47361 | 25840 ft | 414 kts | 353° |
| 2026-04-28 15:44 | -74.23532 | 9.46542 | 25841 ft | 414 kts | 353° |
| 2026-04-28 15:44 | -74.20665 | 9.45726 | 25840 ft | 414 kts | 353° |
| 2026-04-28 15:44 | -74.17795 | 9.44912 | 25842 ft | 414 kts | 353° |
| 2026-04-28 15:44 | -74.14925 | 9.44101 | 25809 ft | 414 kts | 353° |
| 2026-04-28 15:45 | -74.12053 | 9.43291 | 25836 ft | 415 kts | 354° |
| 2026-04-28 15:45 | -74.09174 | 9.42483 | 25821 ft | 416 kts | 354° |
| 2026-04-28 15:45 | -74.06286 | 9.41676 | 25836 ft | 416 kts | 354° |
| 2026-04-28 15:45 | -74.03405 | 9.40874 | 25838 ft | 416 kts | 354° |
| 2026-04-28 15:46 | -74.00560 | 9.40085 | 25838 ft | 416 kts | 354° |
| 2026-04-28 15:46 | -73.97675 | 9.39287 | 25837 ft | 415 kts | 354° |
| 2026-04-28 15:46 | -73.94792 | 9.38492 | 25838 ft | 415 kts | 354° |
| 2026-04-28 15:46 | -73.91913 | 9.37701 | 25837 ft | 415 kts | 354° |
| 2026-04-28 15:47 | -73.89030 | 9.36912 | 25838 ft | 415 kts | 354° |
| 2026-04-28 15:47 | -73.86152 | 9.36127 | 25837 ft | 415 kts | 354° |
| 2026-04-28 15:47 | -73.83268 | 9.35343 | 25837 ft | 415 kts | 354° |
| 2026-04-28 15:47 | -73.80385 | 9.34561 | 25837 ft | 415 kts | 354° |
| 2026-04-28 15:48 | -73.77503 | 9.33782 | 25835 ft | 416 kts | 354° |
| 2026-04-28 15:48 | -73.74615 | 9.33005 | 25838 ft | 417 kts | 354° |
| 2026-04-28 15:48 | -73.71719 | 9.32229 | 25840 ft | 417 kts | 354° |
| 2026-04-28 15:48 | -73.68826 | 9.31457 | 25840 ft | 417 kts | 354° |
| 2026-04-28 15:49 | -73.65931 | 9.30686 | 25843 ft | 417 kts | 355° |
| 2026-04-28 15:49 | -73.63036 | 9.29918 | 25844 ft | 416 kts | 355° |
| 2026-04-28 15:49 | -73.60151 | 9.29156 | 25844 ft | 416 kts | 355° |
| 2026-04-28 15:49 | -73.57264 | 9.28395 | 25849 ft | 416 kts | 355° |
| 2026-04-28 15:50 | -73.54377 | 9.27637 | 25849 ft | 416 kts | 355° |
| 2026-04-28 15:50 | -73.51491 | 9.26881 | 25849 ft | 416 kts | 355° |
| 2026-04-28 15:50 | -73.48601 | 9.26127 | 25848 ft | 416 kts | 355° |
| 2026-04-28 15:50 | -73.45721 | 9.25379 | 25849 ft | 416 kts | 355° |
| 2026-04-28 15:51 | -73.42826 | 9.24628 | 25849 ft | 417 kts | 355° |
| 2026-04-28 15:51 | -73.39926 | 9.23879 | 25851 ft | 418 kts | 355° |
| 2026-04-28 15:51 | -73.37026 | 9.23133 | 25852 ft | 419 kts | 355° |
| 2026-04-28 15:51 | -73.34113 | 9.22387 | 25851 ft | 419 kts | 355° |
| 2026-04-28 15:52 | -73.31207 | 9.21644 | 25852 ft | 419 kts | 355° |
| 2026-04-28 15:52 | -73.28297 | 9.20903 | 25859 ft | 419 kts | 355° |
| 2026-04-28 15:52 | -73.25389 | 9.20165 | 25859 ft | 419 kts | 355° |
| 2026-04-28 15:52 | -73.22481 | 9.19430 | 25861 ft | 419 kts | 355° |
| 2026-04-28 15:53 | -73.19572 | 9.18696 | 25860 ft | 419 kts | 355° |
| 2026-04-28 15:53 | -73.16661 | 9.17965 | 25865 ft | 419 kts | 355° |
| 2026-04-28 15:53 | -73.13755 | 9.17237 | 25866 ft | 419 kts | 355° |
| 2026-04-28 15:53 | -73.10847 | 9.16511 | 25866 ft | 419 kts | 355° |
| 2026-04-28 15:54 | -73.07932 | 9.15786 | 25863 ft | 420 kts | 356° |
| 2026-04-28 15:54 | -73.05007 | 9.15061 | 25865 ft | 422 kts | 356° |
| 2026-04-28 15:54 | -73.02074 | 9.14336 | 25876 ft | 423 kts | 356° |
| 2026-04-28 15:54 | -72.99133 | 9.13612 | 25875 ft | 424 kts | 356° |
| 2026-04-28 15:55 | -72.96193 | 9.12891 | 25880 ft | 424 kts | 356° |
| 2026-04-28 15:55 | -72.93252 | 9.12171 | 25875 ft | 424 kts | 356° |
| 2026-04-28 15:55 | -72.90311 | 9.11454 | 25878 ft | 424 kts | 356° |
| 2026-04-28 15:55 | -72.87370 | 9.10740 | 25888 ft | 424 kts | 356° |
| 2026-04-28 15:56 | -72.84431 | 9.10028 | 25891 ft | 424 kts | 356° |
| 2026-04-28 15:56 | -72.81489 | 9.09318 | 25891 ft | 424 kts | 356° |
| 2026-04-28 15:56 | -72.78549 | 9.08611 | 25890 ft | 424 kts | 356° |
| 2026-04-28 15:56 | -72.75609 | 9.07906 | 25893 ft | 424 kts | 356° |
| 2026-04-28 15:57 | -72.72667 | 9.07203 | 25910 ft | 424 kts | 356° |
| 2026-04-28 15:57 | -72.69722 | 9.06501 | 25911 ft | 425 kts | 356° |
| 2026-04-28 15:57 | -72.66766 | 9.05800 | 25912 ft | 426 kts | 356° |
| 2026-04-28 15:57 | -72.63806 | 9.05100 | 25911 ft | 426 kts | 356° |
| 2026-04-28 15:58 | -72.60848 | 9.04402 | 25912 ft | 426 kts | 356° |
| 2026-04-28 15:58 | -72.57893 | 9.03708 | 25938 ft | 426 kts | 356° |
| 2026-04-28 15:58 | -72.54939 | 9.03016 | 25935 ft | 425 kts | 356° |
| 2026-04-28 15:58 | -72.51986 | 9.02326 | 25938 ft | 426 kts | 356° |
| 2026-04-28 15:59 | -72.49025 | 9.01637 | 25935 ft | 426 kts | 356° |
| 2026-04-28 15:59 | -72.47073 | 9.01184 | 25935 ft | 426 kts | 356° |
| 2026-04-28 15:59 | -72.43152 | 9.00277 | 25965 ft | 427 kts | 356° |
| 2026-04-28 15:59 | -72.40192 | 8.99595 | 25968 ft | 426 kts | 356° |
| 2026-04-28 16:00 | -72.37232 | 8.98915 | 25969 ft | 428 kts | 356° |
| 2026-04-28 16:00 | -72.34247 | 8.98232 | 25969 ft | 432 kts | 356° |
| 2026-04-28 16:00 | -72.31244 | 8.97547 | 26011 ft | 433 kts | 356° |
| 2026-04-28 16:00 | -72.28236 | 8.96862 | 26011 ft | 434 kts | 356° |
| 2026-04-28 16:01 | -72.25221 | 8.96179 | 26010 ft | 433 kts | 356° |
| 2026-04-28 16:01 | -72.22219 | 8.95500 | 25997 ft | 432 kts | 356° |
| 2026-04-28 16:01 | -72.19244 | 8.94829 | 25461 ft | 426 kts | 356° |
| 2026-04-28 16:01 | -72.16338 | 8.94178 | 24500 ft | 431 kts | 356° |
| 2026-04-28 16:02 | -72.13327 | 8.93505 | 23583 ft | 434 kts | 356° |
| 2026-04-28 16:02 | -72.11291 | 8.93050 | 23050 ft | 434 kts | 356° |
| 2026-04-28 16:02 | -72.08278 | 8.92380 | 22183 ft | 433 kts | 356° |
| 2026-04-28 16:02 | -72.05319 | 8.91724 | 21309 ft | 429 kts | 356° |
| 2026-04-28 16:03 | -72.02388 | 8.91077 | 20046 ft | 416 kts | 356° |
| 2026-04-28 16:03 | -71.99564 | 8.90456 | 19102 ft | 391 kts | 355° |
| 2026-04-28 16:03 | -71.96968 | 8.89888 | 18718 ft | 362 kts | 355° |
| 2026-04-28 16:03 | -71.94407 | 8.89324 | 18202 ft | 375 kts | 355° |
| 2026-04-28 16:04 | -71.91799 | 8.88752 | 17657 ft | 376 kts | 355° |
| 2026-04-28 16:04 | -71.89190 | 8.88182 | 17138 ft | 376 kts | 355° |
| 2026-04-28 16:04 | -71.86582 | 8.87614 | 16584 ft | 375 kts | 355° |
| 2026-04-28 16:04 | -71.83984 | 8.87053 | 16050 ft | 373 kts | 355° |
| 2026-04-28 16:05 | -71.81401 | 8.86495 | 15513 ft | 372 kts | 355° |
| 2026-04-28 16:05 | -71.78823 | 8.85939 | 14974 ft | 371 kts | 355° |
| 2026-04-28 16:05 | -71.76258 | 8.85387 | 14472 ft | 370 kts | 355° |
| 2026-04-28 16:05 | -71.73694 | 8.84837 | 13939 ft | 367 kts | 355° |
| 2026-04-28 16:06 | -71.71155 | 8.84294 | 13392 ft | 365 kts | 355° |
| 2026-04-28 16:06 | -71.68639 | 8.83758 | 12976 ft | 359 kts | 355° |
| 2026-04-28 16:06 | -71.66160 | 8.83231 | 12552 ft | 354 kts | 355° |
| 2026-04-28 16:06 | -71.63724 | 8.82475 | 12181 ft | 349 kts | 349° |
| 2026-04-28 16:07 | -71.61382 | 8.80851 | 11816 ft | 343 kts | 344° |
| 2026-04-28 16:07 | -71.59095 | 8.78752 | 11332 ft | 341 kts | 341° |
| 2026-04-28 16:07 | -71.54617 | 8.74067 | 10315 ft | 338 kts | 340° |
| 2026-04-28 16:08 | -71.52398 | 8.71728 | 9907 ft | 334 kts | 341° |
| 2026-04-28 16:08 | -71.50239 | 8.69504 | 9772 ft | 319 kts | 341° |
| 2026-04-28 16:08 | -71.48170 | 8.67419 | 9662 ft | 306 kts | 341° |
| 2026-04-28 16:09 | -71.44267 | 8.63569 | 9395 ft | 284 kts | 342° |
| 2026-04-28 16:09 | -71.42401 | 8.61749 | 9169 ft | 278 kts | 342° |
| 2026-04-28 16:09 | -71.40563 | 8.59959 | 8861 ft | 275 kts | 342° |
| 2026-04-28 16:10 | -71.36938 | 8.56438 | 8147 ft | 272 kts | 341° |
| 2026-04-28 16:10 | -71.35129 | 8.54685 | 7738 ft | 273 kts | 341° |
| 2026-04-28 16:10 | -71.31494 | 8.51603 | 7043 ft | 270 kts | 353° |
| 2026-04-28 16:11 | -71.27978 | 8.54627 | 6368 ft | 269 kts | 40° |
| 2026-04-28 16:11 | -71.26712 | 8.64958 | 6139 ft | 263 kts | 98° |
| 2026-04-28 16:12 | -71.28474 | 8.73818 | 6150 ft | 231 kts | 148° |
| 2026-04-28 16:12 | -71.29868 | 8.75751 | 6150 ft | 216 kts | 169° |
| 2026-04-28 16:13 | -71.32664 | 8.75549 | 6147 ft | 190 kts | 192° |
| 2026-04-28 16:13 | -71.33922 | 8.74773 | 6140 ft | 179 kts | 194° |
| 2026-04-28 16:13 | -71.36139 | 8.73155 | 6171 ft | 153 kts | 196° |
| 2026-04-28 16:14 | -71.38239 | 8.72185 | 5169 ft | 149 kts | 176° |
| 2026-04-28 16:14 | -71.40073 | 8.73413 | 4814 ft | 126 kts | 160° |
| 2026-04-28 16:15 | -71.41738 | 8.75123 | 4705 ft | 127 kts | 160° |
| 2026-04-28 16:15 | -71.42577 | 8.75998 | 4642 ft | 127 kts | 160° |
| 2026-04-28 16:15 | -71.43420 | 8.76881 | 4578 ft | 128 kts | 160° |
| 2026-04-28 16:16 | -71.45152 | 8.77997 | 4372 ft | 128 kts | 178° |
| 2026-04-28 16:16 | -71.46040 | 8.77891 | 4283 ft | 128 kts | 180° |
| 2026-04-28 16:17 | -71.47816 | 8.77625 | 4208 ft | 127 kts | 183° |
| 2026-04-28 16:17 | -71.48695 | 8.77329 | 4267 ft | 127 kts | 185° |
| 2026-04-28 16:17 | -71.49577 | 8.77029 | 4344 ft | 129 kts | 184° |
| 2026-04-28 16:17 | -71.50460 | 8.76718 | 4362 ft | 127 kts | 187° |
| 2026-04-28 16:18 | -71.51339 | 8.76324 | 4376 ft | 128 kts | 184° |
| 2026-04-28 16:18 | -71.52222 | 8.76322 | 4285 ft | 126 kts | 176° |
| 2026-04-28 16:18 | -71.53098 | 8.76545 | 4213 ft | 127 kts | 174° |
| 2026-04-28 16:18 | -71.53904 | 8.76786 | 4207 ft | 88 kts | 175° |
| 2026-04-28 16:19 | -71.54249 | 8.76886 | 4221 ft | 26 kts | 174° |
| 2026-04-28 16:19 | -71.54410 | 8.76934 | 4230 ft | 21 kts | 174° |
| 2026-04-28 16:19 | -71.54546 | 8.76975 | 4229 ft | 18 kts | 174° |
| 2026-04-28 16:19 | -71.54685 | 8.77011 | 4236 ft | 21 kts | 175° |
| 2026-04-28 16:20 | -71.54823 | 8.77044 | 4247 ft | 19 kts | 175° |
| 2026-04-28 16:20 | -71.54953 | 8.77077 | 4246 ft | 18 kts | 175° |
| 2026-04-28 16:20 | -71.55068 | 8.77107 | 4257 ft | 16 kts | 175° |
| 2026-04-28 16:20 | -71.55170 | 8.77134 | 4260 ft | 16 kts | 175° |
| 2026-04-28 16:21 | -71.55305 | 8.77172 | 4266 ft | 21 kts | 174° |
| 2026-04-28 16:21 | -71.55438 | 8.77212 | 4267 ft | 20 kts | 174° |
| 2026-04-28 16:21 | -71.55571 | 8.77252 | 4275 ft | 17 kts | 175° |
| 2026-04-28 16:21 | -71.55687 | 8.77286 | 4283 ft | 17 kts | 174° |
| 2026-04-28 16:22 | -71.55750 | 8.77221 | 4286 ft | 4 kts | 258° |
| 2026-04-28 16:22 | -71.55768 | 8.77196 | 4287 ft | 2 kts | 170° |
| 2026-04-28 16:22 | -71.55768 | 8.77243 | 4286 ft | 2 kts | 70° |
| 2026-04-28 16:22 | -71.55719 | 8.77254 | 4284 ft | 16 kts | 359° |
| 2026-04-28 16:23 | -71.55562 | 8.77224 | 4275 ft | 26 kts | 355° |
| 2026-04-28 16:23 | -71.55367 | 8.77175 | 4266 ft | 30 kts | 355° |
| 2026-04-28 16:23 | -71.55151 | 8.77120 | 4259 ft | 33 kts | 355° |
| 2026-04-28 16:23 | -71.54918 | 8.77062 | 4256 ft | 35 kts | 355° |
| 2026-04-28 16:24 | -71.54673 | 8.77002 | 4249 ft | 36 kts | 354° |
| 2026-04-28 16:24 | -71.54423 | 8.76917 | 4240 ft | 36 kts | 354° |
| 2026-04-28 16:24 | -71.54172 | 8.76840 | 4219 ft | 36 kts | 355° |
| 2026-04-28 16:24 | -71.53915 | 8.76772 | 4208 ft | 37 kts | 355° |
| 2026-04-28 16:25 | -71.53694 | 8.76716 | 4202 ft | 30 kts | 355° |
| 2026-04-28 16:25 | -71.53496 | 8.76669 | 4191 ft | 23 kts | 355° |
| 2026-04-28 16:25 | -71.53444 | 8.76656 | 4186 ft | 0 kts | 355° |
| 2026-04-28 16:28 | -71.53438 | 8.76655 | 4191 ft | 4 kts | 355° |
| 2026-04-28 16:28 | -71.53373 | 8.76639 | 4186 ft | 14 kts | 355° |
| 2026-04-28 16:29 | -71.53255 | 8.76841 | 4190 ft | 6 kts | 98° |
| 2026-04-28 16:29 | -71.53266 | 8.76862 | 4191 ft | 0 kts | 168° |